createdAt,value
2018-12-13T00:00:52.751Z,83.97
2018-12-13T00:01:52.739Z,84.08
2018-12-13T00:02:52.737Z,84.18
2018-12-13T00:03:52.753Z,83.37
2018-12-13T00:04:52.718Z,83.34
2018-12-13T00:05:52.702Z,83.97
2018-12-13T00:06:52.685Z,83.54
2018-12-13T00:07:52.684Z,83.86
2018-12-13T00:08:52.666Z,82.60
2018-12-13T00:09:52.693Z,83.54
2018-12-13T00:10:52.644Z,83.76
2018-12-13T00:11:52.640Z,83.23
2018-12-13T00:12:52.625Z,83.23
2018-12-13T00:13:52.615Z,82.92
2018-12-13T00:14:52.611Z,82.71
2018-12-13T00:15:52.673Z,82.60
2018-12-13T00:16:52.582Z,83.59
2018-12-13T00:17:52.573Z,83.59
2018-12-13T00:18:52.571Z,83.90
2018-12-13T00:19:52.552Z,83.59
2018-12-13T00:21:04.178Z,83.59
2018-12-13T00:21:52.531Z,83.48
2018-12-13T00:22:52.520Z,83.59
2018-12-13T00:23:52.509Z,83.76
2018-12-13T00:24:52.496Z,83.34
2018-12-13T00:25:52.488Z,83.69
2018-12-13T00:26:52.691Z,83.69
2018-12-13T00:27:52.474Z,83.59
2018-12-13T00:28:52.459Z,84.11
2018-12-13T00:29:52.444Z,84.32
2018-12-13T00:30:52.434Z,84.32
2018-12-13T00:31:52.468Z,84.32
2018-12-13T00:32:52.425Z,83.90
2018-12-13T00:33:52.405Z,84.11
2018-12-13T00:34:52.398Z,83.44
2018-12-13T00:35:52.385Z,83.90
2018-12-13T00:36:52.370Z,83.86
2018-12-13T00:37:52.355Z,84.42
2018-12-13T00:38:52.682Z,83.86
2018-12-13T00:39:52.335Z,83.44
2018-12-13T00:40:52.327Z,83.34
2018-12-13T00:41:52.321Z,83.97
2018-12-13T00:42:52.304Z,84.18
2018-12-13T00:43:52.291Z,83.76
2018-12-13T00:44:52.301Z,84.28
2018-12-13T00:45:52.275Z,84.18
2018-12-13T00:46:52.264Z,83.97
2018-12-13T00:47:52.270Z,84.32
2018-12-13T00:48:52.245Z,84.18
2018-12-13T00:49:52.227Z,84.28
2018-12-13T00:50:53.006Z,84.18
2018-12-13T00:52:02.424Z,83.97
2018-12-13T00:52:52.204Z,84.32
2018-12-13T00:53:52.189Z,84.08
2018-12-13T00:54:52.178Z,83.97
2018-12-13T00:55:52.172Z,83.37
2018-12-13T00:56:52.183Z,83.54
2018-12-13T00:57:52.149Z,83.59
2018-12-13T00:58:52.138Z,83.59
2018-12-13T00:59:52.134Z,83.69
2018-12-13T01:00:52.115Z,84.11
2018-12-13T01:01:52.106Z,83.90
2018-12-13T01:02:52.125Z,84.32
2018-12-13T01:03:52.084Z,84.32
2018-12-13T01:04:52.072Z,84.11
2018-12-13T01:05:52.067Z,84.11
2018-12-13T01:06:52.050Z,84.01
2018-12-13T01:07:52.039Z,84.18
2018-12-13T01:08:52.196Z,84.49
2018-12-13T01:09:52.019Z,84.11
2018-12-13T01:10:52.008Z,83.90
2018-12-13T01:11:52.001Z,83.90
2018-12-13T01:12:51.993Z,84.49
2018-12-13T01:13:51.985Z,84.42
2018-12-13T01:14:52.006Z,84.53
2018-12-13T01:15:51.958Z,85.37
2018-12-13T01:16:51.948Z,85.13
2018-12-13T01:17:51.936Z,84.70
2018-12-13T01:18:51.923Z,84.42
2018-12-13T01:19:51.916Z,84.49
2018-12-13T01:20:52.206Z,84.74
2018-12-13T01:21:51.892Z,85.69
2018-12-13T01:23:02.222Z,84.53
2018-12-13T01:23:51.873Z,84.53
2018-12-13T01:24:51.859Z,84.32
2018-12-13T01:25:51.851Z,85.37
2018-12-13T01:26:51.884Z,85.69
2018-12-13T01:27:51.834Z,85.90
2018-12-13T01:28:51.816Z,85.16
2018-12-13T01:29:51.807Z,85.27
2018-12-13T01:30:51.796Z,85.58
2018-12-13T01:31:51.787Z,85.27
2018-12-13T01:32:51.808Z,84.91
2018-12-13T01:33:51.761Z,84.64
2018-12-13T01:34:51.759Z,84.84
2018-12-13T01:35:51.753Z,84.32
2018-12-13T01:36:52.548Z,84.22
2018-12-13T01:37:51.719Z,83.90
2018-12-13T01:38:51.730Z,83.90
2018-12-13T01:39:51.703Z,84.42
2018-12-13T01:40:51.694Z,84.22
2018-12-13T01:41:51.680Z,84.42
2018-12-13T01:42:51.670Z,85.06
2018-12-13T01:43:51.660Z,84.42
2018-12-13T01:44:52.457Z,84.84
2018-12-13T01:45:51.633Z,84.95
2018-12-13T01:46:51.623Z,85.16
2018-12-13T01:47:51.618Z,84.95
2018-12-13T01:48:51.610Z,85.27
2018-12-13T01:49:51.600Z,84.95
2018-12-13T01:50:51.614Z,85.02
2018-12-13T01:51:51.570Z,85.06
2018-12-13T01:52:51.561Z,85.16
2018-12-13T01:54:01.524Z,85.13
2018-12-13T01:54:51.539Z,85.06
2018-12-13T01:55:51.528Z,85.37
2018-12-13T01:56:52.305Z,85.23
2018-12-13T01:57:51.510Z,85.37
2018-12-13T01:58:51.499Z,85.48
2018-12-13T01:59:51.491Z,85.13
2018-12-13T02:00:51.483Z,86.07
2018-12-13T02:01:51.467Z,85.58
2018-12-13T02:02:51.498Z,85.55
2018-12-13T02:03:51.451Z,86.63
2018-12-13T02:04:51.438Z,85.44
2018-12-13T02:05:51.426Z,86.91
2018-12-13T02:06:51.420Z,86.53
2018-12-13T02:07:51.406Z,86.43
2018-12-13T02:08:51.431Z,86.63
2018-12-13T02:09:51.390Z,86.21
2018-12-13T02:10:51.370Z,86.32
2018-12-13T02:11:51.357Z,86.70
2018-12-13T02:12:51.359Z,86.70
2018-12-13T02:13:51.345Z,86.43
2018-12-13T02:14:51.725Z,86.74
2018-12-13T02:15:51.319Z,86.53
2018-12-13T02:16:51.314Z,86.74
2018-12-13T02:17:51.300Z,86.32
2018-12-13T02:18:51.289Z,86.95
2018-12-13T02:19:51.278Z,86.00
2018-12-13T02:20:52.061Z,86.21
2018-12-13T02:21:51.264Z,86.32
2018-12-13T02:22:51.252Z,86.63
2018-12-13T02:23:51.233Z,86.95
2018-12-13T02:25:01.419Z,86.95
2018-12-13T02:25:51.209Z,86.85
2018-12-13T02:26:51.244Z,86.57
2018-12-13T02:27:51.192Z,86.78
2018-12-13T02:28:51.175Z,85.79
2018-12-13T02:29:51.179Z,86.15
2018-12-13T02:30:51.161Z,85.94
2018-12-13T02:31:51.144Z,86.04
2018-12-13T02:32:51.159Z,85.94
2018-12-13T02:33:51.127Z,85.94
2018-12-13T02:34:51.120Z,86.15
2018-12-13T02:35:51.101Z,85.94
2018-12-13T02:36:51.093Z,86.15
2018-12-13T02:37:51.081Z,86.04
2018-12-13T02:38:51.745Z,86.25
2018-12-13T02:39:51.060Z,87.10
2018-12-13T02:40:51.054Z,86.99
2018-12-13T02:41:51.043Z,86.88
2018-12-13T02:42:51.027Z,87.05
2018-12-13T02:43:51.047Z,86.43
2018-12-13T02:44:51.233Z,86.46
2018-12-13T02:45:51.001Z,86.95
2018-12-13T02:46:50.982Z,86.36
2018-12-13T02:47:50.976Z,86.63
2018-12-13T02:48:50.966Z,86.32
2018-12-13T02:49:50.959Z,86.15
2018-12-13T02:50:51.214Z,86.15
2018-12-13T02:51:50.934Z,86.15
2018-12-13T02:52:50.926Z,85.94
2018-12-13T02:53:50.915Z,86.15
2018-12-13T02:54:50.903Z,86.25
2018-12-13T02:56:01.234Z,85.73
2018-12-13T02:56:50.877Z,85.83
2018-12-13T02:57:50.869Z,86.15
2018-12-13T02:58:50.858Z,85.31
2018-12-13T02:59:50.846Z,85.10
2018-12-13T03:00:50.848Z,85.94
2018-12-13T03:01:50.866Z,85.83
2018-12-13T03:02:50.819Z,85.94
2018-12-13T03:03:50.808Z,86.25
2018-12-13T03:04:50.796Z,86.36
2018-12-13T03:05:50.788Z,86.46
2018-12-13T03:06:50.777Z,86.57
2018-12-13T03:07:50.781Z,86.78
2018-12-13T03:08:50.760Z,85.73
2018-12-13T03:09:50.740Z,86.04
2018-12-13T03:10:50.726Z,86.15
2018-12-13T03:11:50.724Z,85.94
2018-12-13T03:12:50.712Z,86.57
2018-12-13T03:13:50.723Z,86.04
2018-12-13T03:14:50.687Z,85.73
2018-12-13T03:15:50.681Z,86.25
2018-12-13T03:16:50.663Z,86.15
2018-12-13T03:17:50.658Z,86.25
2018-12-13T03:18:50.651Z,86.99
2018-12-13T03:19:51.429Z,86.46
2018-12-13T03:20:50.631Z,85.83
2018-12-13T03:21:50.620Z,85.20
2018-12-13T03:22:50.609Z,85.31
2018-12-13T03:23:50.594Z,86.19
2018-12-13T03:24:50.585Z,85.87
2018-12-13T03:25:50.743Z,85.52
2018-12-13T03:27:01.190Z,85.20
2018-12-13T03:27:50.554Z,85.55
2018-12-13T03:28:50.534Z,85.45
2018-12-13T03:29:50.527Z,84.99
2018-12-13T03:30:50.522Z,84.67
2018-12-13T03:31:50.529Z,84.78
2018-12-13T03:32:50.508Z,85.41
2018-12-13T03:33:50.493Z,85.73
2018-12-13T03:34:50.478Z,85.83
2018-12-13T03:35:50.472Z,84.99
2018-12-13T03:36:50.452Z,85.62
2018-12-13T03:37:50.733Z,86.04
2018-12-13T03:38:50.436Z,85.83
2018-12-13T03:39:50.425Z,85.52
2018-12-13T03:40:50.408Z,85.52
2018-12-13T03:41:50.403Z,86.68
2018-12-13T03:42:50.388Z,85.73
2018-12-13T03:43:50.483Z,85.41
2018-12-13T03:44:50.375Z,85.31
2018-12-13T03:45:50.357Z,85.94
2018-12-13T03:46:50.345Z,86.15
2018-12-13T03:47:50.340Z,86.15
2018-12-13T03:48:50.329Z,86.15
2018-12-13T03:49:50.366Z,86.15
2018-12-13T03:50:50.307Z,86.78
2018-12-13T03:51:50.300Z,85.62
2018-12-13T03:52:50.287Z,87.03
2018-12-13T03:53:50.273Z,86.46
2018-12-13T03:54:50.264Z,86.51
2018-12-13T03:55:50.291Z,86.61
2018-12-13T03:56:50.241Z,86.40
2018-12-13T03:58:00.981Z,87.03
2018-12-13T03:58:50.217Z,85.62
2018-12-13T03:59:50.214Z,86.57
2018-12-13T04:00:50.200Z,86.19
2018-12-13T04:01:50.204Z,86.19
2018-12-13T04:02:50.191Z,85.97
2018-12-13T04:03:50.170Z,86.29
2018-12-13T04:04:50.153Z,85.87
2018-12-13T04:05:50.149Z,85.97
2018-12-13T04:06:50.130Z,86.71
2018-12-13T04:07:50.160Z,85.87
2018-12-13T04:08:50.109Z,86.08
2018-12-13T04:09:50.100Z,86.51
2018-12-13T04:10:50.097Z,86.71
2018-12-13T04:11:50.084Z,86.71
2018-12-13T04:12:50.070Z,85.91
2018-12-13T04:13:50.247Z,85.45
2018-12-13T04:14:50.050Z,86.71
2018-12-13T04:15:50.039Z,85.97
2018-12-13T04:16:50.027Z,85.66
2018-12-13T04:17:50.019Z,86.08
2018-12-13T04:18:50.012Z,85.45
2018-12-13T04:19:50.032Z,86.65
2018-12-13T04:20:49.981Z,85.45
2018-12-13T04:21:49.974Z,85.66
2018-12-13T04:22:49.967Z,86.12
2018-12-13T04:23:49.981Z,85.91
2018-12-13T04:24:49.952Z,86.02
2018-12-13T04:25:50.037Z,86.86
2018-12-13T04:26:49.929Z,86.86
2018-12-13T04:27:49.916Z,86.86
2018-12-13T04:29:02.111Z,87.07
2018-12-13T04:29:49.891Z,86.86
2018-12-13T04:30:49.885Z,86.82
2018-12-13T04:31:50.283Z,86.86
2018-12-13T04:32:49.863Z,86.44
2018-12-13T04:33:49.846Z,86.82
2018-12-13T04:34:49.843Z,86.76
2018-12-13T04:35:49.830Z,87.07
2018-12-13T04:36:49.816Z,86.65
2018-12-13T04:37:49.842Z,86.82
2018-12-13T04:38:49.794Z,86.29
2018-12-13T04:39:49.781Z,86.65
2018-12-13T04:40:49.774Z,86.65
2018-12-13T04:41:49.763Z,86.65
2018-12-13T04:42:49.749Z,86.61
2018-12-13T04:43:49.774Z,86.96
2018-12-13T04:44:49.730Z,86.96
2018-12-13T04:45:49.722Z,86.65
2018-12-13T04:46:49.764Z,86.44
2018-12-13T04:47:49.696Z,87.18
2018-12-13T04:48:49.691Z,87.24
2018-12-13T04:49:49.770Z,86.71
2018-12-13T04:50:49.663Z,86.65
2018-12-13T04:51:49.658Z,87.38
2018-12-13T04:52:49.640Z,86.40
2018-12-13T04:53:49.639Z,86.61
2018-12-13T04:54:49.618Z,87.13
2018-12-13T04:55:50.282Z,86.86
2018-12-13T04:56:49.603Z,86.93
2018-12-13T04:57:49.589Z,87.13
2018-12-13T04:58:49.580Z,87.24
2018-12-13T04:59:59.642Z,86.82
2018-12-13T05:00:49.556Z,87.03
2018-12-13T05:01:50.285Z,87.03
2018-12-13T05:02:49.535Z,87.07
2018-12-13T05:03:49.528Z,87.35
2018-12-13T05:04:49.514Z,87.13
2018-12-13T05:05:49.507Z,87.38
2018-12-13T05:06:49.495Z,86.82
2018-12-13T05:07:49.522Z,86.71
2018-12-13T05:08:49.474Z,87.03
2018-12-13T05:09:49.460Z,86.96
2018-12-13T05:10:49.449Z,86.82
2018-12-13T05:11:49.448Z,87.35
2018-12-13T05:12:49.430Z,87.35
2018-12-13T05:13:49.449Z,86.93
2018-12-13T05:14:49.408Z,86.71
2018-12-13T05:15:49.405Z,86.82
2018-12-13T05:16:49.391Z,87.35
2018-12-13T05:17:49.386Z,86.61
2018-12-13T05:18:49.367Z,86.51
2018-12-13T05:19:49.396Z,86.40
2018-12-13T05:20:49.346Z,87.35
2018-12-13T05:21:49.336Z,87.24
2018-12-13T05:22:49.331Z,86.51
2018-12-13T05:23:49.321Z,86.61
2018-12-13T05:24:49.298Z,86.61
2018-12-13T05:25:49.336Z,87.13
2018-12-13T05:26:49.277Z,86.51
2018-12-13T05:27:49.270Z,87.03
2018-12-13T05:28:49.256Z,87.13
2018-12-13T05:29:49.250Z,87.24
2018-12-13T05:31:01.315Z,86.93
2018-12-13T05:31:49.229Z,87.45
2018-12-13T05:32:49.215Z,87.45
2018-12-13T05:33:49.207Z,87.76
2018-12-13T05:34:49.193Z,87.98
2018-12-13T05:35:49.184Z,87.87
2018-12-13T05:36:49.217Z,87.73
2018-12-13T05:37:49.162Z,86.78
2018-12-13T05:38:49.149Z,86.93
2018-12-13T05:39:49.148Z,87.35
2018-12-13T05:40:49.126Z,87.03
2018-12-13T05:41:49.124Z,87.03
2018-12-13T05:42:49.128Z,87.03
2018-12-13T05:43:49.101Z,87.03
2018-12-13T05:44:49.094Z,87.24
2018-12-13T05:45:49.075Z,86.93
2018-12-13T05:46:49.067Z,86.99
2018-12-13T05:47:49.052Z,87.52
2018-12-13T05:48:49.086Z,87.30
2018-12-13T05:49:49.038Z,87.45
2018-12-13T05:50:49.040Z,86.71
2018-12-13T05:51:49.009Z,87.35
2018-12-13T05:52:49.005Z,88.08
2018-12-13T05:53:48.991Z,88.08
2018-12-13T05:54:49.289Z,87.35
2018-12-13T05:55:48.971Z,87.73
2018-12-13T05:56:48.966Z,88.08
2018-12-13T05:57:48.966Z,88.18
2018-12-13T05:58:48.934Z,88.25
2018-12-13T05:59:48.922Z,87.93
2018-12-13T06:00:48.935Z,87.76
2018-12-13T06:01:59.656Z,88.92
2018-12-13T06:02:48.897Z,88.35
2018-12-13T06:03:48.879Z,88.92
2018-12-13T06:04:48.883Z,88.92
2018-12-13T06:05:48.866Z,89.14
2018-12-13T06:06:48.895Z,88.78
2018-12-13T06:07:54.641Z,88.18
2018-12-13T06:08:49.830Z,88.15
2018-12-13T06:09:48.817Z,88.82
2018-12-13T06:10:48.825Z,88.29
2018-12-13T06:11:48.819Z,88.82
2018-12-13T06:12:48.839Z,88.89
2018-12-13T06:13:48.778Z,89.20
2018-12-13T06:14:48.763Z,88.57
2018-12-13T06:15:48.764Z,89.98
2018-12-13T06:16:48.747Z,88.99
2018-12-13T06:17:48.738Z,88.99
2018-12-13T06:18:48.757Z,88.89
2018-12-13T06:19:48.708Z,88.92
2018-12-13T06:20:48.697Z,88.99
2018-12-13T06:21:48.732Z,88.82
2018-12-13T06:22:48.680Z,88.89
2018-12-13T06:23:48.674Z,89.24
2018-12-13T06:24:48.694Z,89.24
2018-12-13T06:25:48.649Z,89.62
2018-12-13T06:26:48.641Z,89.34
2018-12-13T06:27:48.625Z,89.09
2018-12-13T06:28:49.082Z,89.56
2018-12-13T06:29:49.037Z,89.24
2018-12-13T06:30:48.632Z,89.98
2018-12-13T06:31:48.593Z,89.45
2018-12-13T06:32:58.527Z,90.08
2018-12-13T06:33:48.564Z,90.50
2018-12-13T06:34:48.553Z,90.82
2018-12-13T06:35:48.542Z,90.61
2018-12-13T06:36:48.596Z,90.82
2018-12-13T06:37:48.523Z,90.82
2018-12-13T06:38:48.504Z,90.92
2018-12-13T06:39:49.501Z,90.82
2018-12-13T06:40:48.501Z,91.55
2018-12-13T06:41:48.476Z,91.13
2018-12-13T06:42:48.554Z,90.92
2018-12-13T06:43:48.459Z,91.70
2018-12-13T06:44:48.447Z,91.60
2018-12-13T06:45:48.433Z,91.70
2018-12-13T06:46:48.420Z,91.81
2018-12-13T06:47:48.411Z,91.70
2018-12-13T06:48:48.853Z,92.33
2018-12-13T06:49:48.419Z,92.29
2018-12-13T06:50:48.377Z,91.35
2018-12-13T06:51:48.391Z,91.35
2018-12-13T06:52:48.361Z,91.45
2018-12-13T06:53:48.350Z,91.39
2018-12-13T06:54:48.372Z,91.13
2018-12-13T06:55:48.328Z,91.35
2018-12-13T06:56:48.315Z,91.35
2018-12-13T06:57:48.304Z,91.28
2018-12-13T06:58:48.299Z,91.60
2018-12-13T06:59:48.287Z,91.49
2018-12-13T07:00:48.843Z,91.35
2018-12-13T07:01:48.262Z,91.35
2018-12-13T07:02:48.255Z,91.55
2018-12-13T07:03:58.371Z,90.92
2018-12-13T07:04:48.229Z,91.03
2018-12-13T07:05:48.218Z,90.71
2018-12-13T07:06:48.227Z,91.13
2018-12-13T07:07:48.195Z,91.24
2018-12-13T07:08:48.202Z,91.35
2018-12-13T07:09:48.174Z,90.92
2018-12-13T07:10:48.164Z,91.24
2018-12-13T07:11:48.167Z,90.61
2018-12-13T07:12:48.186Z,91.03
2018-12-13T07:13:48.135Z,91.24
2018-12-13T07:14:48.131Z,90.82
2018-12-13T07:15:48.110Z,90.82
2018-12-13T07:16:48.107Z,90.71
2018-12-13T07:17:48.106Z,90.50
2018-12-13T07:18:48.364Z,91.03
2018-12-13T07:19:48.082Z,91.03
2018-12-13T07:20:48.066Z,90.92
2018-12-13T07:21:48.053Z,90.71
2018-12-13T07:22:48.039Z,90.92
2018-12-13T07:23:48.027Z,90.82
2018-12-13T07:24:48.363Z,90.71
2018-12-13T07:25:48.021Z,90.82
2018-12-13T07:26:47.995Z,90.71
2018-12-13T07:27:47.990Z,90.82
2018-12-13T07:28:47.977Z,90.92
2018-12-13T07:29:47.962Z,90.50
2018-12-13T07:30:48.339Z,90.50
2018-12-13T07:31:47.942Z,90.40
2018-12-13T07:32:47.930Z,90.61
2018-12-13T07:33:47.927Z,90.40
2018-12-13T07:35:01.342Z,90.08
2018-12-13T07:35:47.902Z,90.40
2018-12-13T07:36:47.924Z,90.75
2018-12-13T07:37:47.879Z,90.71
2018-12-13T07:38:47.874Z,90.61
2018-12-13T07:39:47.866Z,90.50
2018-12-13T07:40:47.846Z,90.19
2018-12-13T07:41:47.835Z,90.50
2018-12-13T07:42:47.850Z,90.01
2018-12-13T07:43:47.814Z,90.61
2018-12-13T07:44:47.802Z,90.08
2018-12-13T07:45:47.797Z,90.50
2018-12-13T07:46:47.785Z,89.87
2018-12-13T07:47:47.769Z,89.56
2018-12-13T07:48:47.795Z,89.34
2018-12-13T07:49:47.753Z,89.66
2018-12-13T07:50:47.745Z,90.19
2018-12-13T07:51:47.731Z,90.19
2018-12-13T07:52:47.722Z,90.75
2018-12-13T07:53:47.713Z,90.08
2018-12-13T07:54:48.362Z,90.19
2018-12-13T07:55:47.690Z,90.65
2018-12-13T07:56:47.681Z,90.92
2018-12-13T07:57:47.669Z,90.86
2018-12-13T07:58:47.658Z,91.17
2018-12-13T07:59:47.705Z,91.07
2018-12-13T08:00:47.885Z,90.97
2018-12-13T08:01:47.627Z,91.07
2018-12-13T08:02:47.612Z,91.00
2018-12-13T08:03:47.597Z,91.17
2018-12-13T08:04:47.586Z,91.11
2018-12-13T08:05:58.380Z,91.91
2018-12-13T08:06:47.569Z,92.12
2018-12-13T08:07:47.564Z,92.58
2018-12-13T08:08:47.552Z,92.12
2018-12-13T08:09:47.537Z,91.74
2018-12-13T08:10:47.536Z,92.02
2018-12-13T08:11:47.558Z,92.48
2018-12-13T08:12:47.509Z,91.85
2018-12-13T08:13:47.497Z,92.12
2018-12-13T08:14:47.489Z,92.23
2018-12-13T08:15:47.475Z,92.06
2018-12-13T08:16:47.459Z,92.38
2018-12-13T08:17:47.488Z,91.96
2018-12-13T08:18:47.442Z,92.33
2018-12-13T08:19:47.438Z,92.69
2018-12-13T08:20:47.445Z,92.80
2018-12-13T08:21:47.409Z,92.69
2018-12-13T08:22:47.402Z,92.65
2018-12-13T08:23:48.178Z,92.58
2018-12-13T08:24:47.383Z,92.80
2018-12-13T08:25:47.365Z,92.90
2018-12-13T08:26:47.360Z,92.02
2018-12-13T08:27:47.350Z,92.16
2018-12-13T08:28:47.342Z,91.96
2018-12-13T08:29:47.388Z,91.96
2018-12-13T08:30:47.315Z,92.69
2018-12-13T08:31:47.306Z,92.48
2018-12-13T08:32:47.299Z,92.48
2018-12-13T08:33:47.284Z,92.38
2018-12-13T08:34:47.274Z,92.69
2018-12-13T08:35:47.386Z,93.01
2018-12-13T08:36:57.895Z,93.22
2018-12-13T08:37:47.239Z,92.58
2018-12-13T08:38:47.228Z,92.73
2018-12-13T08:39:47.217Z,93.32
2018-12-13T08:40:47.209Z,93.01
2018-12-13T08:41:47.236Z,92.48
2018-12-13T08:42:47.193Z,92.48
2018-12-13T08:43:47.177Z,92.27
2018-12-13T08:44:47.166Z,92.69
2018-12-13T08:45:47.171Z,92.69
2018-12-13T08:46:47.140Z,92.69
2018-12-13T08:47:47.175Z,92.38
2018-12-13T08:48:47.120Z,92.38
2018-12-13T08:49:47.109Z,92.90
2018-12-13T08:50:47.103Z,92.65
2018-12-13T08:51:47.094Z,92.16
2018-12-13T08:52:47.076Z,92.38
2018-12-13T08:53:47.128Z,92.06
2018-12-13T08:54:47.059Z,91.96
2018-12-13T08:55:47.051Z,91.85
2018-12-13T08:56:47.036Z,92.16
2018-12-13T08:57:47.035Z,91.64
2018-12-13T08:58:47.011Z,91.53
2018-12-13T08:59:47.791Z,92.21
2018-12-13T09:00:46.994Z,92.48
2018-12-13T09:01:46.992Z,92.80
2018-12-13T09:02:46.979Z,92.80
2018-12-13T09:03:47.015Z,92.69
2018-12-13T09:04:46.960Z,92.41
2018-12-13T09:05:47.726Z,92.52
2018-12-13T09:06:46.936Z,92.41
2018-12-13T09:07:57.207Z,92.41
2018-12-13T09:08:46.905Z,92.41
2018-12-13T09:09:46.893Z,92.48
2018-12-13T09:10:46.889Z,92.94
2018-12-13T09:11:46.901Z,92.94
2018-12-13T09:12:46.871Z,92.52
2018-12-13T09:13:46.858Z,92.41
2018-12-13T09:14:46.873Z,92.52
2018-12-13T09:15:46.842Z,92.69
2018-12-13T09:16:46.821Z,91.96
2018-12-13T09:17:46.916Z,92.48
2018-12-13T09:18:46.803Z,92.41
2018-12-13T09:19:46.809Z,92.16
2018-12-13T09:20:46.783Z,92.16
2018-12-13T09:21:46.767Z,91.85
2018-12-13T09:22:46.762Z,91.74
2018-12-13T09:23:46.799Z,91.74
2018-12-13T09:24:46.741Z,91.74
2018-12-13T09:25:46.785Z,91.22
2018-12-13T09:26:46.787Z,91.00
2018-12-13T09:27:46.709Z,91.11
2018-12-13T09:28:46.703Z,91.42
2018-12-13T09:29:46.937Z,91.11
2018-12-13T09:30:46.678Z,91.00
2018-12-13T09:31:46.667Z,91.00
2018-12-13T09:32:46.663Z,91.42
2018-12-13T09:33:46.646Z,91.11
2018-12-13T09:34:46.630Z,91.11
2018-12-13T09:35:46.918Z,91.42
2018-12-13T09:36:46.615Z,91.00
2018-12-13T09:37:47.606Z,91.32
2018-12-13T09:38:56.765Z,91.00
2018-12-13T09:39:46.582Z,91.00
2018-12-13T09:40:46.564Z,90.80
2018-12-13T09:41:46.597Z,91.00
2018-12-13T09:42:46.549Z,91.42
2018-12-13T09:43:46.537Z,91.32
2018-12-13T09:44:46.529Z,91.42
2018-12-13T09:45:46.517Z,91.17
2018-12-13T09:46:46.500Z,90.33
2018-12-13T09:47:46.960Z,91.11
2018-12-13T09:48:46.486Z,91.42
2018-12-13T09:49:46.467Z,90.86
2018-12-13T09:50:46.464Z,90.86
2018-12-13T09:51:46.454Z,90.97
2018-12-13T09:52:46.442Z,91.11
2018-12-13T09:53:46.478Z,91.00
2018-12-13T09:54:46.423Z,90.97
2018-12-13T09:55:46.407Z,90.97
2018-12-13T09:56:46.399Z,91.07
2018-12-13T09:57:46.390Z,91.32
2018-12-13T09:58:46.375Z,91.00
2018-12-13T09:59:46.410Z,91.11
2018-12-13T10:00:46.350Z,91.53
2018-12-13T10:01:46.350Z,91.42
2018-12-13T10:02:46.333Z,91.64
2018-12-13T10:03:46.323Z,91.00
2018-12-13T10:04:46.308Z,91.00
2018-12-13T10:05:46.339Z,91.42
2018-12-13T10:06:46.290Z,91.00
2018-12-13T10:07:46.344Z,91.42
2018-12-13T10:08:46.535Z,90.69
2018-12-13T10:09:56.806Z,90.90
2018-12-13T10:10:46.251Z,91.64
2018-12-13T10:11:46.314Z,92.48
2018-12-13T10:12:46.228Z,91.11
2018-12-13T10:13:46.219Z,91.07
2018-12-13T10:14:46.236Z,91.22
2018-12-13T10:15:46.199Z,90.69
2018-12-13T10:16:46.194Z,91.11
2018-12-13T10:17:46.192Z,91.00
2018-12-13T10:18:46.161Z,91.00
2018-12-13T10:19:46.171Z,91.11
2018-12-13T10:20:46.211Z,91.53
2018-12-13T10:21:46.125Z,91.47
2018-12-13T10:22:46.121Z,90.69
2018-12-13T10:23:46.433Z,91.11
2018-12-13T10:24:46.095Z,90.90
2018-12-13T10:25:46.107Z,91.00
2018-12-13T10:26:46.076Z,90.80
2018-12-13T10:27:46.062Z,90.90
2018-12-13T10:28:46.078Z,90.73
2018-12-13T10:29:46.086Z,90.90
2018-12-13T10:30:46.037Z,90.90
2018-12-13T10:31:46.019Z,91.00
2018-12-13T10:32:46.011Z,90.90
2018-12-13T10:33:45.997Z,90.90
2018-12-13T10:34:45.993Z,90.80
2018-12-13T10:35:46.030Z,91.00
2018-12-13T10:36:45.971Z,91.11
2018-12-13T10:37:45.960Z,91.00
2018-12-13T10:38:45.949Z,91.22
2018-12-13T10:39:46.055Z,90.90
2018-12-13T10:40:56.966Z,91.32
2018-12-13T10:41:45.912Z,91.00
2018-12-13T10:42:45.903Z,91.42
2018-12-13T10:43:45.892Z,91.22
2018-12-13T10:44:45.890Z,91.42
2018-12-13T10:45:45.868Z,91.64
2018-12-13T10:46:45.889Z,91.53
2018-12-13T10:47:45.863Z,91.42
2018-12-13T10:48:46.432Z,91.11
2018-12-13T10:49:46.409Z,91.42
2018-12-13T10:50:45.826Z,91.32
2018-12-13T10:51:45.837Z,91.53
2018-12-13T10:52:46.590Z,91.11
2018-12-13T10:53:45.817Z,91.42
2018-12-13T10:54:45.776Z,91.11
2018-12-13T10:55:45.767Z,91.00
2018-12-13T10:56:45.786Z,91.11
2018-12-13T10:57:47.433Z,91.53
2018-12-13T10:58:45.768Z,91.22
2018-12-13T10:59:45.802Z,91.53
2018-12-13T11:00:45.717Z,91.42
2018-12-13T11:01:45.709Z,91.22
2018-12-13T11:02:45.697Z,91.42
2018-12-13T11:03:45.681Z,91.32
2018-12-13T11:04:48.719Z,90.37
2018-12-13T11:05:45.664Z,91.11
2018-12-13T11:06:45.660Z,91.05
2018-12-13T11:07:45.639Z,91.47
2018-12-13T11:08:45.643Z,91.78
2018-12-13T11:09:45.619Z,91.42
2018-12-13T11:10:45.623Z,91.85
2018-12-13T11:11:55.882Z,91.42
2018-12-13T11:12:45.584Z,91.53
2018-12-13T11:13:45.572Z,91.11
2018-12-13T11:14:45.562Z,91.00
2018-12-13T11:15:45.564Z,91.11
2018-12-13T11:16:45.979Z,90.37
2018-12-13T11:17:45.530Z,90.80
2018-12-13T11:18:45.523Z,90.80
2018-12-13T11:19:45.520Z,90.90
2018-12-13T11:20:45.510Z,90.80
2018-12-13T11:21:45.491Z,90.69
2018-12-13T11:22:45.526Z,91.00
2018-12-13T11:23:45.476Z,90.69
2018-12-13T11:24:45.481Z,90.90
2018-12-13T11:25:45.448Z,90.90
2018-12-13T11:26:45.435Z,90.90
2018-12-13T11:27:45.426Z,90.90
2018-12-13T11:28:45.732Z,90.90
2018-12-13T11:29:45.403Z,91.00
2018-12-13T11:30:45.390Z,90.80
2018-12-13T11:31:45.391Z,90.37
2018-12-13T11:32:45.378Z,89.84
2018-12-13T11:33:45.364Z,90.48
2018-12-13T11:34:45.368Z,90.80
2018-12-13T11:35:45.345Z,90.48
2018-12-13T11:36:45.336Z,90.52
2018-12-13T11:37:45.347Z,90.90
2018-12-13T11:38:45.311Z,90.62
2018-12-13T11:39:45.298Z,90.73
2018-12-13T11:40:45.465Z,90.83
2018-12-13T11:41:45.276Z,90.94
2018-12-13T11:42:55.240Z,91.05
2018-12-13T11:43:45.401Z,90.83
2018-12-13T11:44:45.245Z,90.83
2018-12-13T11:45:45.235Z,91.05
2018-12-13T11:46:45.332Z,91.15
2018-12-13T11:47:45.232Z,91.19
2018-12-13T11:48:45.208Z,90.83
2018-12-13T11:49:45.195Z,91.19
2018-12-13T11:50:45.179Z,91.05
2018-12-13T11:51:45.175Z,91.51
2018-12-13T11:52:45.177Z,91.09
2018-12-13T11:53:45.152Z,91.15
2018-12-13T11:54:45.143Z,91.51
2018-12-13T11:55:45.132Z,91.26
2018-12-13T11:56:45.125Z,91.36
2018-12-13T11:57:45.109Z,91.61
2018-12-13T11:58:46.747Z,91.19
2018-12-13T11:59:45.090Z,91.19
2018-12-13T12:00:45.078Z,91.41
2018-12-13T12:01:45.075Z,91.41
2018-12-13T12:02:45.061Z,91.30
2018-12-13T12:03:45.050Z,91.19
2018-12-13T12:04:45.832Z,91.19
2018-12-13T12:05:45.033Z,91.09
2018-12-13T12:06:45.013Z,91.41
2018-12-13T12:07:44.998Z,91.19
2018-12-13T12:08:44.991Z,91.30
2018-12-13T12:09:44.983Z,91.51
2018-12-13T12:10:44.983Z,91.66
2018-12-13T12:11:44.958Z,91.51
2018-12-13T12:12:44.953Z,91.19
2018-12-13T12:13:55.462Z,91.97
2018-12-13T12:14:44.933Z,91.76
2018-12-13T12:15:44.913Z,91.61
2018-12-13T12:16:44.951Z,91.55
2018-12-13T12:17:44.899Z,91.66
2018-12-13T12:18:44.895Z,91.93
2018-12-13T12:19:44.878Z,92.25
2018-12-13T12:20:44.860Z,91.51
2018-12-13T12:21:44.884Z,91.51
2018-12-13T12:22:44.881Z,91.55
2018-12-13T12:23:44.829Z,91.51
2018-12-13T12:24:44.909Z,91.61
2018-12-13T12:25:44.807Z,91.51
2018-12-13T12:26:44.809Z,91.66
2018-12-13T12:27:44.793Z,91.51
2018-12-13T12:28:44.821Z,91.19
2018-12-13T12:29:44.770Z,91.61
2018-12-13T12:30:44.761Z,91.09
2018-12-13T12:31:44.749Z,91.09
2018-12-13T12:32:44.739Z,90.98
2018-12-13T12:33:44.722Z,91.61
2018-12-13T12:34:45.612Z,91.19
2018-12-13T12:35:44.705Z,91.09
2018-12-13T12:36:44.691Z,91.09
2018-12-13T12:37:44.680Z,90.67
2018-12-13T12:38:44.672Z,90.35
2018-12-13T12:39:44.660Z,91.30
2018-12-13T12:40:44.676Z,91.41
2018-12-13T12:41:44.651Z,91.30
2018-12-13T12:42:44.631Z,91.19
2018-12-13T12:43:44.618Z,91.19
2018-12-13T12:44:54.701Z,90.98
2018-12-13T12:45:44.602Z,91.19
2018-12-13T12:46:45.039Z,91.51
2018-12-13T12:47:44.577Z,90.98
2018-12-13T12:48:44.571Z,91.19
2018-12-13T12:49:44.558Z,91.09
2018-12-13T12:50:44.546Z,90.77
2018-12-13T12:51:44.540Z,90.98
2018-12-13T12:52:44.559Z,91.19